Main page
METAR-TAF:

METAR-TAF

Airports :

Niederstetten Air Base

Niederstetten, Germany

latitude: 49-24N, longitude: 009-58E, elevation: 468 m

Current weather observation

The report was made 49 minutes ago, at 14:20 UTC
Wind 7 kt from the East/Northeast with gusts up to 19 kt
Temperature 14°C
Humidity 36%
Pressure 1023 hPa
Visibility 10 km or more
Few clouds at a height of 5500 ft

METAR: ETHN 041420Z 07007G19KT 9999 FEW055 14/M01 Q1023 BLU+

Time: 17:09 (15:09 UTC)

Forecast

The report was made 29 hours and 40 minutes ago, at 09:29 UTC
Forecast valid from 03 at 08 UTC to 03 at 17 UTC
Wind 5 kt from the West/Southwest
Visibility 10 km or more
Overcast at a height of 6000 ft
Probability 30%
from 03 at 10 UTC to 03 at 17 UTC
Wind 10 kt from the West/Southwest
Visibility: 7000 m
Broken clouds at a height of 2000 ft
rain

TAF: ETHN 030929Z 0308/0317 25005KT 9999 NSW OVC060 PROB30 0310/0317 25010KT 7000 RA BKN020 CANCEL 1000Z

Weather observations and forecasts of more than 4000 airports (METAR and TAF reports).

The available stations are represented by yellow and red dots on the map.

Hover mouse over dot to see the name of the station.

Then click to see weather observations and forecasts.

To change the map : click on the green buttons with a black cross to zoom in, on the green button with a dash to zoom out, or on the green arrows for adjacent maps.


METAR-TAF: